Time;durP1;ratioP1;P1;durP2;ratioP2;P2;SDS_P1;SDS_P2;PMS_P1;PMS_P2;Temp;Humidity;BMP_temperature;BMP_pressure;BME280_temperature;BME280_humidity;BME280_pressure;Samples;Min_cycle;Max_cycle;Signal;HPM_P1;HPM_P2
2023/05/16 04:22:33;;;;;;;20.77;10.40;;;;;;;12.18;100.00;100069.13;5069308;28;20164;-69
2023/05/16 04:24:58;;;;;;;23.67;10.88;;;;;;;12.15;100.00;100068.69;5069398;28;20102;-70
2023/05/16 04:27:25;;;;;;;26.90;10.68;;;;;;;12.13;100.00;100066.22;5068898;28;20045;-69
2023/05/16 04:29:51;;;;;;;28.60;10.10;;;;;;;12.15;100.00;100069.53;5068057;28;20037;-70
2023/05/16 04:32:17;;;;;;;22.17;10.75;;;;;;;12.16;100.00;100073.84;5069214;28;20289;-69
2023/05/16 04:34:44;;;;;;;22.67;9.38;;;;;;;12.07;100.00;100074.97;5069213;28;20032;-70
2023/05/16 04:37:09;;;;;;;24.65;10.90;;;;;;;12.18;100.00;100063.78;5068804;28;20544;-69
2023/05/16 04:39:35;;;;;;;22.70;9.57;;;;;;;12.12;100.00;100077.91;5069045;28;20044;-70
2023/05/16 04:42:02;;;;;;;23.80;9.88;;;;;;;12.15;100.00;100074.03;5067704;28;20086;-69
2023/05/16 04:44:27;;;;;;;21.65;9.60;;;;;;;12.14;100.00;100075.06;5068914;28;20437;-70
2023/05/16 04:46:53;;;;;;;22.55;9.90;;;;;;;12.19;100.00;100077.97;5068730;28;20052;-69
2023/05/16 04:49:19;;;;;;;21.38;9.68;;;;;;;12.00;100.00;100073.22;5068701;28;20076;-70
2023/05/16 04:51:45;;;;;;;22.35;10.20;;;;;;;12.15;100.00;100076.72;5069227;28;20036;-65
2023/05/16 04:54:11;;;;;;;22.20;10.50;;;;;;;12.03;100.00;100084.38;5069586;28;20032;-66
2023/05/16 04:56:36;;;;;;;20.45;9.30;;;;;;;12.06;100.00;100083.16;5068508;28;20060;-65
2023/05/16 04:59:03;;;;;;;21.08;8.75;;;;;;;12.07;100.00;100080.31;5068196;28;20478;-66
2023/05/16 05:01:28;;;;;;;21.85;9.27;;;;;;;12.09;100.00;100080.94;5068497;28;20032;-67
2023/05/16 05:03:54;;;;;;;19.88;9.32;;;;;;;12.06;100.00;100081.34;5068516;28;20043;-67
2023/05/16 05:06:20;;;;;;;19.73;9.93;;;;;;;12.12;100.00;100077.91;5068444;28;20127;-66
2023/05/16 05:08:45;;;;;;;16.92;8.50;;;;;;;12.13;100.00;100084.91;5068130;28;20036;-64
2023/05/16 05:11:11;;;;;;;20.25;9.45;;;;;;;11.99;100.00;100087.59;5068431;28;20421;-63
2023/05/16 05:13:36;;;;;;;18.85;9.25;;;;;;;12.06;100.00;100083.16;5068306;28;20041;-67
2023/05/16 05:16:03;;;;;;;18.73;8.90;;;;;;;12.03;100.00;100092.38;5068191;28;20127;-66
2023/05/16 05:18:29;;;;;;;24.25;8.73;;;;;;;12.07;100.00;100091.00;5067921;28;20098;-65
2023/05/16 05:20:54;;;;;;;19.45;8.15;;;;;;;12.06;100.00;100089.34;5074894;28;20052;-65
2023/05/16 05:23:20;;;;;;;21.20;8.73;;;;;;;12.06;100.00;100089.34;5088445;28;20045;-65
2023/05/16 05:25:46;;;;;;;15.07;8.35;;;;;;;12.13;100.00;100095.59;5088235;28;20127;-64
2023/05/16 05:28:11;;;;;;;19.10;8.77;;;;;;;12.00;100.00;100090.09;5088065;28;20111;-65
2023/05/16 05:30:37;;;;;;;20.13;9.20;;;;;;;12.09;100.00;100093.47;5088201;28;20487;-67
2023/05/16 05:33:02;;;;;;;16.95;8.60;;;;;;;12.17;100.00;100096.84;5079678;28;20445;-64
2023/05/16 05:35:28;;;;;;;18.30;8.88;;;;;;;12.06;100.00;100109.84;5074577;28;20425;-65
2023/05/16 05:37:53;;;;;;;17.00;8.27;;;;;;;11.98;100.00;100107.28;5074300;28;20123;-65
2023/05/16 05:40:18;;;;;;;19.10;9.15;;;;;;;12.03;100.00;100100.38;5073322;28;20040;-64
2023/05/16 05:42:44;;;;;;;20.25;9.10;;;;;;;12.05;100.00;100103.69;5074601;28;20048;-63
2023/05/16 05:45:10;;;;;;;14.95;7.95;;;;;;;12.09;100.00;100107.66;5074338;28;20071;-65
2023/05/16 05:47:35;;;;;;;18.30;7.90;;;;;;;12.09;100.00;100106.81;5074205;28;20485;-66
2023/05/16 05:50:02;;;;;;;16.77;8.43;;;;;;;12.02;100.00;100111.25;5074474;28;20500;-64
2023/05/16 05:52:27;;;;;;;12.35;6.85;;;;;;;12.00;100.00;100113.25;5074419;28;20032;-65
2023/05/16 05:54:53;;;;;;;16.17;7.82;;;;;;;12.05;100.00;100110.88;5074348;28;20553;-67
2023/05/16 05:57:19;;;;;;;18.42;7.75;;;;;;;11.96;100.00;100104.81;5073890;28;20527;-66
2023/05/16 05:59:44;;;;;;;16.55;7.35;;;;;;;11.93;100.00;100115.84;5074223;28;20473;-63
2023/05/16 06:02:10;;;;;;;13.25;7.13;;;;;;;11.97;100.00;100116.31;5074154;28;20041;-65
2023/05/16 06:04:35;;;;;;;15.20;8.25;;;;;;;12.03;100.00;100113.72;5074189;28;20041;-66
2023/05/16 06:07:01;;;;;;;14.35;7.15;;;;;;;12.02;100.00;100120.09;5073834;28;20485;-67
2023/05/16 06:09:26;;;;;;;19.33;8.20;;;;;;;12.11;100.00;100118.97;5074034;28;20036;-67
2023/05/16 06:11:51;;;;;;;14.70;7.22;;;;;;;12.11;100.00;100118.97;5074005;28;20111;-66
2023/05/16 06:14:17;;;;;;;16.90;8.23;;;;;;;12.13;100.00;100111.63;5073942;28;20044;-66
2023/05/16 06:16:42;;;;;;;14.18;6.60;;;;;;;12.20;100.00;100123.19;5073842;28;20120;-66
2023/05/16 06:19:08;;;;;;;16.00;6.38;;;;;;;12.27;100.00;100122.47;5073673;28;20042;-66
2023/05/16 06:21:33;;;;;;;14.02;7.05;;;;;;;12.22;100.00;100128.34;5073918;28;20572;-66
2023/05/16 06:23:59;;;;;;;15.07;6.63;;;;;;;12.33;100.00;100127.06;5073849;28;20044;-66
2023/05/16 06:26:24;;;;;;;15.30;6.43;;;;;;;12.32;100.00;100133.38;5073638;28;20047;-66
2023/05/16 06:28:50;;;;;;;12.95;6.00;;;;;;;12.16;99.79;100134.44;5073356;28;20098;-66
2023/05/16 06:31:15;;;;;;;10.13;5.50;;;;;;;12.22;100.00;100136.34;5073717;28;20036;-65
2023/05/16 06:33:40;;;;;;;12.20;5.68;;;;;;;12.22;100.00;100141.69;5073644;28;20405;-67
2023/05/16 06:36:06;;;;;;;12.50;4.85;;;;;;;12.25;99.91;100145.81;5073466;28;20044;-65
2023/05/16 06:38:31;;;;;;;9.63;4.65;;;;;;;12.31;100.00;100145.91;5073219;28;20051;-63
2023/05/16 06:40:57;;;;;;;7.82;3.83;;;;;;;12.34;99.56;100142.06;5073345;28;20119;-66
2023/05/16 06:43:22;;;;;;;13.80;5.10;;;;;;;12.29;98.90;100147.13;5073121;28;20489;-67
2023/05/16 06:45:48;;;;;;;10.15;4.78;;;;;;;12.30;99.13;100154.94;5072562;28;20036;-65
2023/05/16 06:48:14;;;;;;;5.80;3.20;;;;;;;12.30;99.13;100154.13;5072960;28;20045;-63
2023/05/16 06:50:39;;;;;;;5.72;3.55;;;;;;;12.36;98.64;100156.03;5073246;28;20028;-66
2023/05/16 06:53:06;;;;;;;7.30;4.03;;;;;;;12.33;98.97;100156.44;5073201;28;20037;-65
2023/05/16 06:55:32;;;;;;;9.05;4.40;;;;;;;12.33;98.89;100161.78;5073099;28;20040;-65
2023/05/16 06:57:57;;;;;;;6.10;3.40;;;;;;;12.36;98.66;100158.72;5073189;28;20040;-65
2023/05/16 07:00:23;;;;;;;6.00;3.40;;;;;;;12.34;99.45;100166.09;5073015;28;20040;-66
2023/05/16 07:02:49;;;;;;;6.05;3.00;;;;;;;12.37;98.68;100166.53;5073020;28;20497;-68
2023/05/16 07:05:14;;;;;;;4.90;3.13;;;;;;;12.37;98.64;100163.03;5072926;28;20497;-66
2023/05/16 07:07:40;;;;;;;6.10;2.75;;;;;;;12.33;97.62;100167.13;5072700;28;20402;-66
2023/05/16 07:10:06;;;;;;;4.72;2.58;;;;;;;12.37;98.08;100163.88;5072858;28;20040;-66
2023/05/16 07:12:31;;;;;;;4.47;2.35;;;;;;;12.44;97.74;100156.75;5072855;28;20040;-65
2023/05/16 07:14:57;;;;;;;5.60;2.40;;;;;;;12.43;97.46;100162.28;5072808;28;20036;-65
2023/05/16 07:17:22;;;;;;;4.68;2.58;;;;;;;12.50;97.88;100163.19;5071278;28;20516;-66
2023/05/16 07:19:49;;;;;;;4.75;2.63;;;;;;;12.53;97.89;100160.16;5072831;28;20573;-66
2023/05/16 07:22:14;;;;;;;3.17;1.95;;;;;;;12.54;97.17;100161.00;5072701;28;20113;-66
2023/05/16 07:24:40;;;;;;;4.90;1.98;;;;;;;12.57;96.79;100164.09;5072627;28;20036;-66
2023/05/16 07:27:05;;;;;;;3.30;1.80;;;;;;;12.50;95.87;100173.88;5072160;28;20049;-71
2023/05/16 07:29:31;;;;;;;2.88;1.63;;;;;;;12.57;96.46;100168.63;5072617;28;20123;-64
2023/05/16 07:31:56;;;;;;;2.90;1.40;;;;;;;12.68;96.00;100168.97;5072468;28;20485;-66
2023/05/16 07:34:22;;;;;;;2.67;1.60;;;;;;;12.72;94.67;100175.59;5072493;28;20041;-68
2023/05/16 07:36:47;;;;;;;2.88;1.98;;;;;;;12.63;94.55;100175.88;5072197;28;20037;-70
2023/05/16 07:39:13;;;;;;;1.55;0.82;;;;;;;12.63;93.54;100182.06;5072165;28;20174;-65
2023/05/16 07:41:38;;;;;;;1.92;1.35;;;;;;;12.60;94.10;100181.63;5072116;28;20490;-66
2023/05/16 07:44:04;;;;;;;1.67;1.35;;;;;;;12.66;94.05;100184.38;5071081;28;20094;-68
2023/05/16 07:46:29;;;;;;;1.55;1.00;;;;;;;12.65;93.53;100185.38;5072289;28;20457;-66
2023/05/16 07:48:55;;;;;;;1.15;0.85;;;;;;;12.72;93.77;100180.13;5071966;28;20040;-68
2023/05/16 07:51:20;;;;;;;1.20;0.90;;;;;;;12.64;92.55;100188.22;5072186;28;20024;-67
2023/05/16 07:53:46;;;;;;;2.65;1.05;;;;;;;12.81;92.72;100191.50;5072293;28;20032;-66
2023/05/16 07:56:11;;;;;;;1.48;0.85;;;;;;;12.67;95.01;100188.69;5071775;28;20127;-65
2023/05/16 07:58:37;;;;;;;1.30;0.98;;;;;;;12.63;92.58;100192.75;5071774;28;20142;-68
2023/05/16 08:01:03;;;;;;;1.38;1.10;;;;;;;12.70;91.93;100185.63;5072126;28;20044;-66
2023/05/16 08:03:28;;;;;;;1.27;1.00;;;;;;;12.62;92.18;100191.09;5072181;28;20445;-68
2023/05/16 08:05:53;;;;;;;1.70;1.02;;;;;;;12.59;92.63;100175.44;5071983;28;20536;-66
2023/05/16 08:08:19;;;;;;;1.77;1.10;;;;;;;12.72;92.77;100188.97;5071824;28;20044;-66
2023/05/16 08:10:44;;;;;;;0.82;0.73;;;;;;;12.80;92.05;100189.84;5070667;28;20041;-67
2023/05/16 08:13:10;;;;;;;1.63;0.95;;;;;;;12.77;91.77;100191.88;5071984;28;20036;-66
2023/05/16 08:15:35;;;;;;;1.20;0.85;;;;;;;12.84;91.20;100199.97;5071888;28;20043;-67
2023/05/16 08:18:01;;;;;;;1.05;0.70;;;;;;;12.84;91.35;100199.13;5071616;28;20044;-66
2023/05/16 08:20:26;;;;;;;3.58;1.20;;;;;;;12.83;91.20;100200.97;5071714;28;20044;-64
2023/05/16 08:22:53;;;;;;;1.02;0.80;;;;;;;12.80;91.52;100201.38;5071935;28;20036;-65
2023/05/16 08:25:19;;;;;;;1.65;0.95;;;;;;;12.72;92.13;100196.16;5071664;28;20029;-63
2023/05/16 08:27:45;;;;;;;1.67;1.00;;;;;;;12.85;92.30;100207.00;5071647;28;20382;-66
2023/05/16 08:30:11;;;;;;;1.30;1.00;;;;;;;12.82;92.14;100202.00;5071846;28;20322;-66
2023/05/16 08:32:37;;;;;;;0.85;0.60;;;;;;;12.84;92.44;100196.47;5072100;28;20061;-70
2023/05/16 08:35:03;;;;;;;1.33;0.80;;;;;;;12.87;91.97;100196.94;5071838;28;20036;-65
2023/05/16 08:37:28;;;;;;;1.30;1.00;;;;;;;12.81;91.41;100197.69;5071499;28;20090;-66
2023/05/16 08:39:53;;;;;;;1.60;1.00;;;;;;;12.87;91.60;100199.59;5071664;28;20119;-67
2023/05/16 08:42:19;;;;;;;1.65;1.00;;;;;;;12.86;91.75;100205.97;5071554;28;20036;-65
2023/05/16 08:44:45;;;;;;;1.90;0.93;;;;;;;12.79;91.54;100206.91;5071721;28;20473;-65
2023/05/16 08:47:15;;;;;;;1.60;1.30;;;;;;;12.83;91.28;100208.19;5071327;28;20075;-67
2023/05/16 08:49:41;;;;;;;1.33;1.05;;;;;;;12.87;91.29;100212.13;5071616;28;20041;-64
2023/05/16 08:52:08;;;;;;;1.15;0.98;;;;;;;13.06;89.39;100208.03;5071552;28;20481;-64
2023/05/16 08:54:35;;;;;;;1.00;0.90;;;;;;;12.70;89.59;100209.69;5071351;28;20400;-67
2023/05/16 08:57:02;;;;;;;0.85;0.75;;;;;;;12.85;88.91;100220.34;5071458;28;20097;-65
2023/05/16 08:59:28;;;;;;;1.15;1.00;;;;;;;12.78;88.41;100211.44;5071462;28;20071;-63
2023/05/16 09:01:54;;;;;;;1.95;0.82;;;;;;;12.75;89.67;100209.13;5071452;28;20458;-64
2023/05/16 09:04:20;;;;;;;1.38;0.90;;;;;;;12.66;88.70;100208.41;5071415;28;20036;-69
2023/05/16 09:06:47;;;;;;;0.93;0.82;;;;;;;12.70;88.88;100204.34;5071221;28;20036;-69
2023/05/16 09:09:12;;;;;;;2.05;1.27;;;;;;;12.67;88.84;100214.59;5074525;28;20040;-65
2023/05/16 09:11:38;;;;;;;1.23;0.90;;;;;;;12.76;88.67;100216.94;5075144;28;20482;-63
2023/05/16 09:14:04;;;;;;;1.05;0.93;;;;;;;12.82;90.06;100212.69;5075126;28;20039;-67
2023/05/16 09:16:30;;;;;;;1.02;0.90;;;;;;;12.87;88.83;100217.47;5074948;28;20047;-66
2023/05/16 09:18:57;;;;;;;1.48;0.90;;;;;;;12.87;88.44;100220.97;5074717;28;20064;-66
2023/05/16 09:21:30;;;;;;;1.00;1.00;;;;;;;12.80;88.86;100220.09;5074782;28;20044;-66
2023/05/16 09:24:01;;;;;;;1.30;0.90;;;;;;;12.67;89.16;100214.59;5074922;28;20504;-66
2023/05/16 09:26:27;;;;;;;1.00;0.70;;;;;;;12.66;87.96;100226.28;5074714;28;20032;-66
2023/05/16 09:28:54;;;;;;;0.80;0.80;;;;;;;12.75;88.08;100228.66;5074571;28;20051;-67
2023/05/16 09:31:25;;;;;;;1.23;0.82;;;;;;;12.86;86.95;100234.53;5074775;28;20025;-66
2023/05/16 09:33:57;;;;;;;1.35;1.10;;;;;;;12.77;86.81;100241.81;5074744;28;20044;-67
2023/05/16 09:36:24;;;;;;;1.35;0.90;;;;;;;12.61;88.05;100237.53;5074550;28;20032;-67
2023/05/16 09:38:52;;;;;;;1.10;1.00;;;;;;;12.58;88.42;100243.22;5074398;28;20024;-65
2023/05/16 09:41:21;;;;;;;0.90;0.80;;;;;;;12.65;89.35;100241.50;5074499;28;20573;-64
2023/05/16 09:43:46;;;;;;;1.42;1.00;;;;;;;12.76;88.31;100245.53;5073424;28;20507;-63
2023/05/16 09:46:15;;;;;;;1.10;1.00;;;;;;;12.69;88.77;100239.28;5074442;28;20032;-64
2023/05/16 09:48:45;;;;;;;1.10;0.85;;;;;;;12.92;88.76;100249.84;5074724;28;20040;-66
2023/05/16 09:51:11;;;;;;;1.50;0.77;;;;;;;13.09;89.30;100245.91;5074521;28;20043;-63
2023/05/16 09:53:38;;;;;;;0.80;0.80;;;;;;;13.32;86.18;100239.59;5074399;28;20067;-67
2023/05/16 09:56:04;;;;;;;0.98;0.88;;;;;;;13.64;85.55;100232.88;5074346;28;20036;-64
2023/05/16 09:58:31;;;;;;;1.25;0.77;;;;;;;13.93;84.09;100239.88;5073969;28;20032;-65
2023/05/16 10:00:57;;;;;;;0.70;0.70;;;;;;;14.03;81.23;100233.16;5074240;28;20063;-64
2023/05/16 10:03:25;;;;;;;1.75;0.75;;;;;;;13.84;81.06;100232.00;5074177;28;20028;-67
2023/05/16 10:05:51;;;;;;;1.05;0.93;;;;;;;14.22;81.17;100242.38;5074312;28;20382;-64
2023/05/16 10:08:20;;;;;;;1.13;1.02;;;;;;;14.15;78.75;100230.78;5073828;28;20028;-64
2023/05/16 10:10:51;;;;;;;0.70;0.70;;;;;;;14.28;78.50;100240.72;5073910;28;20028;-66
2023/05/16 10:13:21;;;;;;;0.60;0.60;;;;;;;14.29;80.16;100240.53;5074104;28;20047;-65
2023/05/16 10:15:54;;;;;;;0.90;0.90;;;;;;;14.36;78.71;100238.72;5060566;28;20440;-64
2023/05/16 10:18:21;;;;;;;1.50;0.90;;;;;;;14.47;78.54;100242.72;5073556;28;20127;-68
2023/05/16 10:20:51;;;;;;;0.85;0.60;;;;;;;14.28;78.89;100236.22;5073932;28;20025;-65
2023/05/16 10:23:18;;;;;;;1.00;0.90;;;;;;;14.07;80.15;100249.66;5073807;28;20041;-66
2023/05/16 10:25:48;;;;;;;0.95;0.70;;;;;;;13.93;78.68;100245.25;5073669;28;20037;-66
2023/05/16 10:28:17;;;;;;;0.77;0.60;;;;;;;14.03;79.71;100232.34;5073438;28;20062;-66
2023/05/16 10:30:45;;;;;;;0.85;0.60;;;;;;;13.89;80.30;100236.78;5073717;28;20020;-66
2023/05/16 10:33:12;;;;;;;0.50;0.50;;;;;;;13.74;79.08;100241.38;5073652;28;20040;-67
2023/05/16 10:35:38;;;;;;;0.90;0.50;;;;;;;13.71;81.79;100239.94;5073601;28;20037;-65
2023/05/16 10:38:05;;;;;;;0.65;0.60;;;;;;;13.66;80.19;100247.72;5073212;28;20032;-67
2023/05/16 10:40:31;;;;;;;0.55;0.55;;;;;;;13.48;82.38;100255.38;5073411;28;20208;-67
2023/05/16 10:42:59;;;;;;;1.05;0.77;;;;;;;13.53;81.53;100260.97;5073606;28;20119;-67
2023/05/16 10:45:24;;;;;;;0.43;0.43;;;;;;;13.54;80.29;100265.31;5073371;28;20068;-67
2023/05/16 10:48:11;;;;;;;0.55;0.55;;;;;;;13.64;80.68;100244.41;5073157;28;20071;-66
2023/05/16 10:50:44;;;;;;;0.60;0.60;;;;;;;13.52;79.59;100256.66;5073335;28;20044;-69
2023/05/16 10:53:28;;;;;;;0.75;0.70;;;;;;;13.16;80.62;100268.19;5073157;28;20076;-66
2023/05/16 10:56:02;;;;;;;0.88;0.50;;;;;;;13.32;80.32;100266.34;5073416;28;20036;-66
2023/05/16 10:58:34;;;;;;;0.60;0.60;;;;;;;13.25;79.02;100267.09;5072825;28;20115;-65
2023/05/16 11:01:34;;;;;;;0.60;0.60;;;;;;;13.17;80.44;100261.84;5073054;28;20059;-66
2023/05/16 11:04:09;;;;;;;0.50;0.50;;;;;;;12.96;80.79;100267.13;5073142;28;20374;-66
2023/05/16 11:06:40;;;;;;;0.40;0.40;;;;;;;12.93;81.43;100272.88;5072911;28;20046;-65
2023/05/16 11:09:16;;;;;;;0.65;0.47;;;;;;;12.88;80.10;100267.25;5072625;28;20123;-65
2023/05/16 11:11:41;;;;;;;0.45;0.43;;;;;;;12.83;81.35;100283.03;5072936;28;20036;-65
2023/05/16 11:14:07;;;;;;;0.35;0.35;;;;;;;12.93;81.49;100286.25;5072746;28;20048;-65
2023/05/16 11:16:34;;;;;;;0.43;0.43;;;;;;;12.77;81.04;100285.41;5072775;28;20107;-65
2023/05/16 11:19:07;;;;;;;0.45;0.40;;;;;;;12.84;80.37;100282.81;5072533;28;20115;-65
2023/05/16 11:22:07;;;;;;;0.40;0.30;;;;;;;12.90;79.77;100289.28;5072406;28;20482;-65
2023/05/16 11:24:34;;;;;;;0.60;0.60;;;;;;;13.10;79.43;100287.66;5072590;28;20478;-64
2023/05/16 11:27:00;;;;;;;0.40;0.40;;;;;;;13.24;78.70;100292.19;5072370;28;20104;-67
2023/05/16 11:29:33;;;;;;;0.30;0.30;;;;;;;13.25;79.11;100288.50;5072401;28;20047;-68
2023/05/16 11:32:00;;;;;;;0.47;0.40;;;;;;;13.12;77.79;100292.84;5072103;28;20405;-64
2023/05/16 11:34:25;;;;;;;0.25;0.25;;;;;;;13.10;76.75;100295.69;5072558;28;20448;-65
2023/05/16 11:36:51;;;;;;;0.32;0.32;;;;;;;13.19;76.60;100294.56;5072076;28;20041;-66
2023/05/16 11:39:18;;;;;;;0.45;0.45;;;;;;;13.13;78.97;100295.31;5072132;28;20021;-66
2023/05/16 11:41:43;;;;;;;1.70;0.50;;;;;;;13.30;75.81;100298.59;5072370;28;20532;-64
2023/05/16 11:44:11;;;;;;;0.88;0.50;;;;;;;13.41;75.03;100286.59;5072394;28;20036;-65
2023/05/16 11:46:39;;;;;;;0.88;0.50;;;;;;;13.45;74.85;100290.56;5072214;28;20036;-66
2023/05/16 11:49:06;;;;;;;3.20;0.57;;;;;;;13.43;75.49;100292.56;5072069;28;20070;-67
2023/05/16 11:51:33;;;;;;;0.40;0.30;;;;;;;13.34;75.07;100294.53;5072126;28;20130;-65
2023/05/16 11:53:59;;;;;;;0.40;0.40;;;;;;;13.25;75.65;100288.50;5054416;28;20062;-66
2023/05/16 11:56:25;;;;;;;1.10;1.00;;;;;;;13.17;75.63;100301.09;5072097;28;20070;-66
2023/05/16 11:58:50;;;;;;;1.05;0.40;;;;;;;12.97;75.44;100301.69;5071486;28;20095;-66
2023/05/16 12:01:16;;;;;;;0.40;0.32;;;;;;;13.00;76.72;100301.34;5061097;28;20032;-66
2023/05/16 12:03:41;;;;;;;0.70;0.50;;;;;;;12.96;75.25;100309.91;5044867;28;20405;-64
2023/05/16 12:06:07;;;;;;;0.70;0.40;;;;;;;13.25;73.52;100312.56;5060950;28;20036;-65
2023/05/16 12:08:33;;;;;;;0.68;0.60;;;;;;;12.95;75.43;100316.28;5061174;28;20047;-65
2023/05/16 12:10:59;;;;;;;0.63;0.60;;;;;;;12.88;75.15;100310.84;5062645;28;20040;-66
2023/05/16 12:13:25;;;;;;;0.75;0.60;;;;;;;12.93;74.74;100318.31;5060929;28;20040;-66
2023/05/16 12:15:54;;;;;;;0.32;0.32;;;;;;;12.92;76.26;100319.34;5059767;28;20094;-66
2023/05/16 12:18:20;;;;;;;0.55;0.55;;;;;;;13.02;74.67;100328.72;5043081;28;20127;-66
2023/05/16 12:20:46;;;;;;;2.30;0.50;;;;;;;13.01;74.25;100328.91;5059452;28;20037;-66
2023/05/16 12:23:12;;;;;;;0.60;0.40;;;;;;;13.00;74.14;100316.56;5051962;28;20479;-65
2023/05/16 12:25:45;;;;;;;0.80;0.68;;;;;;;12.92;73.88;100324.69;5051581;28;20120;-66
2023/05/16 12:28:12;;;;;;;0.82;0.60;;;;;;;13.02;73.45;100323.38;5051533;28;20047;-65
2023/05/16 12:30:40;;;;;;;1.23;0.50;;;;;;;12.94;74.41;100338.69;5033990;28;20045;-66
2023/05/16 12:33:11;;;;;;;0.50;0.50;;;;;;;12.99;77.00;100338.97;5051748;28;20039;-66
2023/05/16 12:35:42;;;;;;;0.40;0.40;;;;;;;13.02;77.70;100338.59;5051577;28;20474;-68
2023/05/16 12:38:11;;;;;;;1.08;0.60;;;;;;;12.99;78.28;100339.78;5051578;28;20555;-66
2023/05/16 12:40:38;;;;;;;2.35;0.80;;;;;;;13.04;79.02;100345.41;5051848;28;20107;-65
2023/05/16 12:43:11;;;;;;;0.68;0.68;;;;;;;13.07;77.94;100343.38;5053461;28;20069;-65
2023/05/16 12:45:36;;;;;;;1.20;0.90;;;;;;;12.65;78.64;100348.41;5055448;28;20394;-67
2023/05/16 12:48:11;;;;;;;1.05;0.88;;;;;;;12.81;79.29;100342.03;5055236;28;20031;-65
2023/05/16 12:50:38;;;;;;;0.77;0.77;;;;;;;12.82;79.51;100346.34;5055509;28;20074;-66
2023/05/16 12:53:03;;;;;;;1.15;0.88;;;;;;;12.96;77.74;100344.69;5055812;28;20433;-68
2023/05/16 12:55:29;;;;;;;3.05;0.90;;;;;;;12.92;78.13;100348.75;5055445;28;20048;-66
2023/05/16 12:57:55;;;;;;;1.17;0.93;;;;;;;12.99;78.66;100355.00;5055092;28;20091;-66
2023/05/16 13:00:22;;;;;;;1.33;0.90;;;;;;;12.85;77.69;100350.53;5055416;28;20443;-65
2023/05/16 13:02:47;;;;;;;1.80;1.20;;;;;;;12.97;77.34;100365.88;5055143;28;20029;-66
2023/05/16 13:05:13;;;;;;;2.05;0.98;;;;;;;13.13;77.13;100358.69;5055260;28;20398;-66
2023/05/16 13:07:39;;;;;;;1.13;1.02;;;;;;;13.19;75.81;100363.28;5054938;28;20120;-65
2023/05/16 13:10:09;;;;;;;0.90;0.90;;;;;;;13.04;76.92;100371.34;5055183;28;20053;-65
2023/05/16 13:12:39;;;;;;;1.42;0.90;;;;;;;13.09;74.98;100376.09;5037410;28;20510;-64
2023/05/16 13:15:06;;;;;;;1.85;1.15;;;;;;;13.18;76.69;100367.81;5055129;28;20060;-67
2023/05/16 13:17:36;;;;;;;1.38;0.93;;;;;;;13.39;76.18;100377.75;5054886;28;20025;-67
2023/05/16 13:20:08;;;;;;;2.83;1.10;;;;;;;13.39;73.67;100363.53;5055052;28;20090;-65
2023/05/16 13:22:36;;;;;;;0.90;0.90;;;;;;;13.25;73.94;100390.16;5054895;28;20124;-65
2023/05/16 13:25:03;;;;;;;1.50;1.05;;;;;;;13.21;73.21;100383.50;5054904;28;20035;-65
2023/05/16 13:27:29;;;;;;;2.42;1.20;;;;;;;13.30;71.55;100379.72;5054512;28;20033;-66
2023/05/16 13:29:55;;;;;;;3.13;1.17;;;;;;;13.23;72.28;100376.09;5054836;28;20082;-66
2023/05/16 13:32:20;;;;;;;1.70;1.00;;;;;;;13.24;70.92;100375.13;5054796;28;20029;-67
2023/05/16 13:34:46;;;;;;;2.00;0.98;;;;;;;13.47;70.14;100380.31;5054743;28;20409;-66
2023/05/16 13:37:11;;;;;;;2.38;1.00;;;;;;;13.64;66.70;100378.25;5054450;28;20067;-66
2023/05/16 13:39:37;;;;;;;3.25;1.00;;;;;;;13.66;65.73;100381.53;5054657;28;20068;-66
2023/05/16 13:42:02;;;;;;;1.80;0.80;;;;;;;13.29;66.61;100380.72;5054556;28;20037;-65
2023/05/16 13:44:28;;;;;;;1.20;1.10;;;;;;;13.39;67.94;100384.94;5054548;28;20087;-65
2023/05/16 13:46:53;;;;;;;1.35;1.08;;;;;;;13.58;66.47;100385.19;5054411;28;20037;-66
2023/05/16 13:49:19;;;;;;;2.30;1.08;;;;;;;13.44;65.67;100383.38;5054352;28;20044;-66
2023/05/16 13:51:46;;;;;;;1.50;0.82;;;;;;;13.37;65.68;100377.13;5054415;28;20037;-67
2023/05/16 13:54:11;;;;;;;3.22;1.65;;;;;;;13.54;65.27;100372.34;5053936;28;20052;-65
2023/05/16 13:56:36;;;;;;;1.77;1.00;;;;;;;13.28;65.33;100379.06;5054206;28;20037;-65
2023/05/16 13:59:02;;;;;;;5.55;1.05;;;;;;;13.57;64.47;100377.34;5054089;28;20040;-65
2023/05/16 14:01:27;;;;;;;1.23;0.93;;;;;;;13.59;63.84;100377.97;5054184;28;20040;-65
2023/05/16 14:03:53;;;;;;;3.25;1.08;;;;;;;13.75;62.60;100387.59;5054213;28;20107;-65
2023/05/16 14:06:18;;;;;;;0.70;0.65;;;;;;;13.64;60.20;100370.22;5054093;28;20838;-65
2023/05/16 14:08:43;;;;;;;1.88;1.05;;;;;;;13.64;61.42;100377.41;5053839;28;20036;-65
2023/05/16 14:11:09;;;;;;;2.03;1.00;;;;;;;13.64;60.08;100362.19;5054049;28;20450;-65
2023/05/16 14:13:34;;;;;;;1.17;0.75;;;;;;;13.72;59.93;100377.28;5054118;28;20041;-65
2023/05/16 14:16:01;;;;;;;1.38;0.80;;;;;;;13.69;60.62;100375.81;5053919;28;20041;-66
2023/05/16 14:18:26;;;;;;;0.82;0.80;;;;;;;13.71;62.39;100376.47;5053587;28;20055;-66
2023/05/16 14:20:55;;;;;;;2.05;0.90;;;;;;;13.65;60.78;100369.19;5053703;28;20037;-67
2023/05/16 14:23:20;;;;;;;1.45;0.70;;;;;;;13.72;60.14;100383.47;5053902;28;20090;-67
2023/05/16 14:25:46;;;;;;;0.90;0.90;;;;;;;13.88;60.18;100385.03;5053785;28;20041;-66
2023/05/16 14:28:11;;;;;;;1.48;0.75;;;;;;;14.00;59.83;100391.56;5035830;28;20037;-64
2023/05/16 14:30:37;;;;;;;2.13;0.90;;;;;;;13.72;59.01;100379.97;5053710;28;20044;-66
2023/05/16 14:33:02;;;;;;;1.10;0.90;;;;;;;13.91;59.34;100381.19;5053648;28;20033;-66
2023/05/16 14:35:28;;;;;;;1.92;1.02;;;;;;;14.05;59.93;100378.44;5053584;28;20045;-67
2023/05/16 14:37:53;;;;;;;1.60;0.70;;;;;;;14.17;58.16;100378.72;5035588;28;20032;-65
2023/05/16 14:40:20;;;;;;;2.20;0.80;;;;;;;14.06;57.31;100372.03;5035733;28;20389;-65
2023/05/16 14:42:46;;;;;;;0.50;0.50;;;;;;;14.38;57.31;100381.38;5053422;28;20505;-66
2023/05/16 14:45:11;;;;;;;2.28;0.82;;;;;;;14.31;56.73;100377.81;5053441;28;20068;-66
2023/05/16 14:47:37;;;;;;;1.23;0.68;;;;;;;14.10;55.25;100377.84;5053018;28;20028;-66
2023/05/16 14:50:02;;;;;;;0.63;0.60;;;;;;;14.10;52.83;100370.66;5053329;28;20510;-68
2023/05/16 14:52:28;;;;;;;1.77;0.70;;;;;;;14.18;54.41;100380.38;5053389;28;20029;-66
2023/05/16 14:54:53;;;;;;;3.65;0.60;;;;;;;13.94;55.15;100381.59;5053228;28;20127;-65
2023/05/16 14:57:19;;;;;;;2.72;0.70;;;;;;;14.00;56.30;100377.34;5052888;28;20086;-69
2023/05/16 14:59:45;;;;;;;1.27;0.68;;;;;;;14.03;54.14;100376.97;5053271;28;20049;-66
2023/05/16 15:02:11;;;;;;;3.03;0.98;;;;;;;14.00;53.99;100377.34;5053029;28;20092;-68
2023/05/16 15:04:36;;;;;;;3.88;0.90;;;;;;;13.97;54.26;100383.09;5052754;28;20065;-68
2023/05/16 15:07:01;;;;;;;2.60;0.70;;;;;;;13.87;53.35;100383.41;5052424;28;20104;-66
2023/05/16 15:09:27;;;;;;;1.05;0.65;;;;;;;13.79;53.37;100378.19;5052783;28;20044;-66
2023/05/16 15:11:52;;;;;;;2.28;0.70;;;;;;;13.70;53.13;100369.44;5052853;28;20040;-65
2023/05/16 15:14:17;;;;;;;4.25;0.95;;;;;;;13.74;53.10;100368.03;5053082;28;20047;-66
2023/05/16 15:16:43;;;;;;;1.85;1.00;;;;;;;13.89;54.94;100367.13;5052617;28;20040;-68
2023/05/16 15:19:08;;;;;;;0.68;0.60;;;;;;;14.01;52.71;100365.59;5052646;28;20044;-65
2023/05/16 15:21:34;;;;;;;0.77;0.45;;;;;;;13.93;52.66;100363.88;5052515;28;20497;-65
2023/05/16 15:23:59;;;;;;;1.48;0.80;;;;;;;13.96;53.22;100360.84;5052493;28;20383;-65
2023/05/16 15:26:25;;;;;;;0.73;0.60;;;;;;;13.97;53.23;100364.34;5052493;28;20070;-65
2023/05/16 15:28:50;;;;;;;1.52;0.80;;;;;;;14.13;52.99;100362.22;5052360;28;20066;-65
2023/05/16 15:31:16;;;;;;;1.00;0.52;;;;;;;14.20;52.64;100369.47;5052617;28;20025;-65
2023/05/16 15:33:41;;;;;;;2.42;1.10;;;;;;;14.20;53.31;100366.78;5052470;28;20505;-67
2023/05/16 15:36:07;;;;;;;0.95;0.80;;;;;;;14.23;54.02;100369.94;5052396;28;20041;-65
2023/05/16 15:38:32;;;;;;;3.42;0.88;;;;;;;14.20;52.07;100378.34;5052012;28;20547;-65
2023/05/16 15:40:58;;;;;;;2.10;0.70;;;;;;;14.25;51.63;100373.22;5052267;28;20112;-65